Terminal Aerodrome Forecast
Issued by NWS

Home | Current Version | Previous Version | Text Only | Print | Product List | Glossary On
Versions: 1 2 3 4 5 6 7 8 9 10 11 12 13 14 15 16
000
FTUS43 KOAX 060520
TAFCDR
TAF
KCDR 060520Z 0606/0706 14010KT P6SM OVC025
     FM060700 14005KT 4SM -RA BR BKN007 OVC010
     FM061200 12005KT 2SM RA BR OVC005
     FM061600 15010KT 6SM BR VCSH SCT010 BKN020=

USA.gov is the U.S. government's official web portal to all federal, state and local government web resources and services.